Impacts TAF Board
For situational awareness. Not to be used for flight planning purposes.
IDs:

KBHM - Birmingham Intl, AL, US

Issued at 2331 UTC 02 Oct 2022
Updated at 2335 UTC 02 Oct 2022
Potential Impact None Slight Moderate High
Time2253Z 03/00Z 03/01Z 03/02Z 03/03Z 03/04Z 03/05Z 03/06Z 03/07Z 03/08Z 03/09Z 03/10Z 03/11Z 03/12Z>>
Type OBS PRVL PRVL PRVL PRVL PRVL PRVL PRVL PRVL PRVL PRVL PRVL PRVL PRVL
VIS 10 >6 >6 >6 >6 >6 >6 >6 >6 >6 >6 >6 >6 >6
CIG -- -- -- -- -- -- -- -- -- -- -- -- -- --
Cover CLR SKC SKC SKC SKC SKC SKC SKC SKC SKC SKC SKC SKC SKC
FltCat VFR VFR VFR VFR VFR VFR VFR VFR VFR VFR VFR VFR VFR VFR
WX -- -- -- -- -- -- -- -- -- -- -- -- -- --
WDir 360 360 360 360 360 20 20 20 20 20 20 20 20 20
WSpd 11 10 10 10 10 5 5 5 5 5 5 5 5 5
WGst -- -- -- -- -- -- -- -- -- -- -- -- -- --
WSHgt -- -- -- -- -- -- -- -- -- -- -- -- -- --
WSDir -- -- -- -- -- -- -- -- -- -- -- -- -- --
WSSpd -- -- -- -- -- -- -- -- -- -- -- -- -- --
Raw TAF
KBHM 022331Z 0300/0324 36010KT P6SM SKC
  FM030400 02005KT P6SM SKC
  FM031500 04007KT P6SM FEW045


Raw METAR
KBHM 022253Z AUTO 36011KT 10SM CLR 25/09 A3006 RMK AO2 SLP173 T02500089
KBHM 022153Z AUTO 35009KT 10SM CLR 27/09 A3005 RMK AO2 SLP169 T02670094
KBHM 022053Z AUTO 34011G20KT 10SM CLR 27/09 A3004 RMK AO2 SLP168 T02720089 56013

METAR Board
Radar Display
Forecast Discussion
For situational awareness. Not to be used for flight planning purposes.